createdAt,value
2023-03-29T00:00:24.923Z,33.70
2023-03-29T00:02:52.289Z,33.80
2023-03-29T00:05:25.432Z,33.80
2023-03-29T00:07:54.265Z,33.70
2023-03-29T00:10:24.178Z,33.60
2023-03-29T00:12:52.710Z,33.50
2023-03-29T00:15:20.564Z,33.50
2023-03-29T00:17:47.541Z,33.50
2023-03-29T00:20:14.522Z,33.50
2023-03-29T00:22:42.475Z,33.80
2023-03-29T00:25:11.040Z,33.90
2023-03-29T00:27:38.217Z,34.00
2023-03-29T00:30:10.360Z,34.00
2023-03-29T00:32:38.327Z,34.30
2023-03-29T00:35:06.365Z,35.40
2023-03-29T00:37:33.686Z,35.40
2023-03-29T00:40:01.674Z,35.90
2023-03-29T00:42:28.641Z,36.20
2023-03-29T00:44:56.954Z,36.50
2023-03-29T00:47:47.816Z,36.50
2023-03-29T00:50:22.699Z,36.40
2023-03-29T00:52:56.694Z,36.30
2023-03-29T00:55:24.710Z,35.90
2023-03-29T00:57:53.712Z,35.20
2023-03-29T01:00:27.405Z,35.70
2023-03-29T01:02:59.901Z,35.90
2023-03-29T01:05:32.097Z,36.20
2023-03-29T01:08:06.723Z,36.30
2023-03-29T01:10:37.421Z,36.50
2023-03-29T01:13:09.634Z,36.60
2023-03-29T01:15:39.087Z,36.80
2023-03-29T01:18:06.625Z,36.90
2023-03-29T01:20:46.775Z,36.80
2023-03-29T01:23:28.724Z,36.80
2023-03-29T01:26:10.655Z,36.90
2023-03-29T01:28:46.957Z,36.90
2023-03-29T01:31:25.713Z,37.10
2023-03-29T01:34:01.521Z,37.20
2023-03-29T01:36:37.239Z,37.40
2023-03-29T01:39:06.232Z,37.50
2023-03-29T01:41:44.058Z,37.50
2023-03-29T01:44:31.717Z,37.60
2023-03-29T01:47:28.761Z,37.70
2023-03-29T01:50:37.322Z,37.30
2023-03-29T01:53:10.811Z,37.50
2023-03-29T01:55:44.640Z,37.90
2023-03-29T01:58:14.138Z,38.00
2023-03-29T02:01:10.549Z,38.00
2023-03-29T02:03:42.572Z,37.90
2023-03-29T02:06:15.918Z,37.90
2023-03-29T02:08:43.746Z,37.70
2023-03-29T02:11:10.826Z,37.60
2023-03-29T02:13:37.912Z,37.90
2023-03-29T02:16:12.991Z,37.80
2023-03-29T02:18:43.327Z,38.00
2023-03-29T02:21:21.341Z,38.00
2023-03-29T02:23:50.101Z,38.00
2023-03-29T02:26:17.818Z,38.00
2023-03-29T02:28:44.760Z,38.40
2023-03-29T02:31:24.323Z,38.50
2023-03-29T02:34:10.584Z,38.50
2023-03-29T02:36:42.963Z,38.40
2023-03-29T02:39:15.671Z,38.60
2023-03-29T02:41:47.186Z,38.70
2023-03-29T02:44:19.174Z,38.70
2023-03-29T02:46:49.040Z,38.60
2023-03-29T02:49:16.421Z,38.50
2023-03-29T02:51:47.523Z,38.50
2023-03-29T02:54:19.547Z,38.50
2023-03-29T02:56:49.369Z,38.40
2023-03-29T03:01:46.382Z,38.40
2023-03-29T03:04:13.899Z,38.40
2023-03-29T03:06:41.082Z,38.40
2023-03-29T03:09:09.763Z,38.40
2023-03-29T03:11:37.790Z,38.50
2023-03-29T03:14:05.948Z,38.60
2023-03-29T03:16:32.988Z,38.60
2023-03-29T03:19:01.100Z,38.50
2023-03-29T03:21:28.342Z,38.40
2023-03-29T03:23:55.835Z,38.40
2023-03-29T03:26:24.927Z,38.40
2023-03-29T03:28:51.863Z,38.50
2023-03-29T03:31:19.705Z,38.50
2023-03-29T03:33:46.739Z,38.70
2023-03-29T03:36:14.088Z,38.90
2023-03-29T03:38:42.150Z,39.20
2023-03-29T03:41:09.195Z,39.30
2023-03-29T03:43:36.506Z,39.30
2023-03-29T03:46:03.514Z,40.10
2023-03-29T03:48:30.594Z,39.20
2023-03-29T03:50:59.147Z,39.10
2023-03-29T03:53:27.479Z,38.90
2023-03-29T03:55:58.982Z,38.80
2023-03-29T03:58:27.216Z,38.70
2023-03-29T04:00:55.016Z,38.70
2023-03-29T04:03:22.745Z,38.70
2023-03-29T04:05:50.111Z,38.60
2023-03-29T04:08:16.990Z,38.70
2023-03-29T04:10:56.315Z,38.90
2023-03-29T04:13:23.725Z,39.20
2023-03-29T04:15:54.442Z,39.40
2023-03-29T04:18:22.466Z,39.60
2023-03-29T04:20:53.042Z,39.80
2023-03-29T04:23:19.983Z,40.00
2023-03-29T04:25:47.736Z,40.20
2023-03-29T04:28:14.618Z,40.20
2023-03-29T04:30:41.489Z,40.10
2023-03-29T04:33:08.556Z,40.10
2023-03-29T04:35:35.583Z,40.20
2023-03-29T04:38:04.478Z,40.20
2023-03-29T04:40:31.851Z,41.00
2023-03-29T04:43:00.146Z,40.50
2023-03-29T04:45:27.411Z,40.60
2023-03-29T04:47:57.203Z,40.70
2023-03-29T04:50:24.097Z,40.80
2023-03-29T04:52:51.507Z,41.20
2023-03-29T04:55:18.429Z,41.40
2023-03-29T04:57:45.289Z,41.70
2023-03-29T05:00:15.747Z,41.90
2023-03-29T05:02:45.709Z,42.20
2023-03-29T05:05:13.453Z,42.40
2023-03-29T05:08:05.998Z,42.70
2023-03-29T05:10:32.917Z,42.50
2023-03-29T05:12:59.841Z,42.90
2023-03-29T05:15:26.860Z,43.10
2023-03-29T05:17:53.881Z,43.30
2023-03-29T05:20:22.067Z,43.60
2023-03-29T05:22:48.993Z,44.00
2023-03-29T05:25:19.658Z,44.10
2023-03-29T05:27:46.925Z,44.30
2023-03-29T05:30:15.483Z,44.30
2023-03-29T05:32:42.999Z,44.40
2023-03-29T05:35:11.420Z,44.50
2023-03-29T05:37:39.897Z,44.60
2023-03-29T05:40:10.486Z,44.80
2023-03-29T05:42:38.737Z,44.40
2023-03-29T05:45:06.546Z,44.20
2023-03-29T05:47:33.468Z,44.10
2023-03-29T05:50:00.475Z,44.00
2023-03-29T05:52:27.528Z,44.00
2023-03-29T05:54:54.444Z,44.00
2023-03-29T05:57:21.628Z,44.10
2023-03-29T05:59:48.548Z,44.00
2023-03-29T06:02:16.097Z,44.00
2023-03-29T06:04:43.258Z,44.10
2023-03-29T06:07:12.622Z,44.00
2023-03-29T06:09:39.940Z,44.00
2023-03-29T06:12:07.990Z,44.10
2023-03-29T06:14:36.634Z,44.30
2023-03-29T06:17:03.881Z,44.70
2023-03-29T06:19:42.578Z,45.20
2023-03-29T06:22:09.460Z,44.90
2023-03-29T06:24:36.570Z,44.70
2023-03-29T06:27:03.558Z,44.90
2023-03-29T06:29:30.402Z,45.00
2023-03-29T06:31:57.324Z,45.00
2023-03-29T06:34:24.325Z,45.10
2023-03-29T06:36:51.280Z,45.10
2023-03-29T06:39:18.270Z,45.90
2023-03-29T06:41:45.171Z,45.10
2023-03-29T06:44:12.591Z,45.50
2023-03-29T06:46:39.538Z,45.20
2023-03-29T06:49:06.557Z,45.30
2023-03-29T06:51:33.457Z,45.10
2023-03-29T06:54:00.344Z,44.80
2023-03-29T06:56:27.249Z,44.40
2023-03-29T06:58:54.104Z,44.30
2023-03-29T07:01:21.874Z,44.20
2023-03-29T07:03:49.853Z,44.10
2023-03-29T07:06:20.975Z,43.90
2023-03-29T07:08:52.075Z,44.00
2023-03-29T07:11:20.454Z,44.10
2023-03-29T07:13:49.263Z,43.90
2023-03-29T07:16:16.386Z,44.00
2023-03-29T07:18:44.374Z,44.40
2023-03-29T07:21:31.272Z,44.30
2023-03-29T07:23:58.392Z,44.20
2023-03-29T07:26:28.632Z,44.00
2023-03-29T07:28:58.856Z,43.90
2023-03-29T07:31:25.860Z,43.90
2023-03-29T07:33:53.612Z,43.70
2023-03-29T07:36:21.857Z,43.80
2023-03-29T07:38:48.801Z,44.00
2023-03-29T07:41:16.266Z,44.20
2023-03-29T07:43:43.213Z,44.30
2023-03-29T07:46:11.450Z,44.10
2023-03-29T07:48:38.382Z,43.90
2023-03-29T07:51:07.217Z,43.60
2023-03-29T07:53:34.297Z,43.30
2023-03-29T07:56:02.775Z,43.10
2023-03-29T07:58:30.590Z,42.90
2023-03-29T08:01:02.952Z,42.90
2023-03-29T08:03:30.055Z,42.80
2023-03-29T08:05:56.935Z,42.80
2023-03-29T08:08:26.670Z,42.80
2023-03-29T08:10:54.795Z,43.10
2023-03-29T08:13:22.083Z,43.20
2023-03-29T08:15:50.346Z,43.50
2023-03-29T08:18:17.641Z,43.60
2023-03-29T08:20:44.521Z,43.90
2023-03-29T08:23:11.497Z,43.70
2023-03-29T08:25:39.377Z,44.00
2023-03-29T08:28:06.498Z,43.40
2023-03-29T08:30:33.464Z,43.40
2023-03-29T08:33:02.278Z,43.10
2023-03-29T08:35:29.190Z,42.90
2023-03-29T08:37:57.581Z,42.90
2023-03-29T08:40:28.534Z,42.70
2023-03-29T08:43:02.070Z,43.00
2023-03-29T08:45:37.702Z,43.20
2023-03-29T08:48:23.394Z,43.20
2023-03-29T08:51:25.547Z,43.00
2023-03-29T08:54:04.456Z,42.50
2023-03-29T08:56:35.429Z,43.10
2023-03-29T08:59:03.474Z,43.30
2023-03-29T09:01:38.711Z,43.40
2023-03-29T09:04:17.183Z,43.10
2023-03-29T09:06:44.574Z,42.90
2023-03-29T09:09:23.396Z,42.60
2023-03-29T09:12:14.055Z,42.50
2023-03-29T09:15:01.939Z,42.10
2023-03-29T09:17:51.955Z,42.30
2023-03-29T09:20:37.492Z,42.50
2023-03-29T09:23:10.338Z,42.50
2023-03-29T09:26:03.617Z,42.30
2023-03-29T09:28:57.393Z,42.70
2023-03-29T09:31:39.288Z,42.50
2023-03-29T09:34:18.892Z,42.00
2023-03-29T09:36:53.576Z,42.10
2023-03-29T09:39:22.316Z,42.50
2023-03-29T09:42:01.822Z,42.90
2023-03-29T09:44:45.798Z,42.70
2023-03-29T09:47:21.221Z,43.20
2023-03-29T09:49:51.839Z,42.70
2023-03-29T09:52:21.352Z,42.90
2023-03-29T09:54:49.372Z,42.80
2023-03-29T09:57:22.170Z,43.10
2023-03-29T09:59:51.605Z,42.60
2023-03-29T10:02:21.180Z,42.60
2023-03-29T10:05:04.249Z,42.80
2023-03-29T10:07:45.676Z,42.50
2023-03-29T10:10:25.447Z,42.30
2023-03-29T10:17:00.227Z,42.30
2023-03-29T10:38:23.126Z,41.60
2023-03-29T10:40:52.792Z,42.10
2023-03-29T10:43:25.693Z,41.90
2023-03-29T10:45:55.918Z,42.00
2023-03-29T10:48:30.425Z,41.90
2023-03-29T10:51:06.147Z,41.40
2023-03-29T10:53:35.973Z,41.70
2023-03-29T10:56:24.908Z,42.20
2023-03-29T10:58:59.056Z,41.60
2023-03-29T11:01:49.061Z,41.30
2023-03-29T11:04:56.730Z,41.50
2023-03-29T11:07:32.925Z,41.40
2023-03-29T11:10:25.818Z,41.30
2023-03-29T11:13:13.480Z,41.40
2023-03-29T11:15:52.270Z,41.90
2023-03-29T11:18:35.490Z,41.90
2023-03-29T11:21:22.638Z,42.00
2023-03-29T11:24:17.163Z,41.90
2023-03-29T11:26:53.630Z,41.90
2023-03-29T11:29:27.189Z,41.80
2023-03-29T11:32:22.385Z,41.60
2023-03-29T11:35:09.276Z,42.10
2023-03-29T11:37:49.930Z,42.10
2023-03-29T11:40:44.982Z,42.40
2023-03-29T11:43:30.629Z,42.60
2023-03-29T11:46:20.749Z,42.70
2023-03-29T11:48:59.626Z,43.00
2023-03-29T11:51:32.282Z,43.80
2023-03-29T11:54:01.889Z,44.20
2023-03-29T11:56:51.501Z,44.40
2023-03-29T12:00:00.173Z,44.30
2023-03-29T12:02:48.685Z,43.80
2023-03-29T12:05:27.834Z,43.10
2023-03-29T12:08:01.560Z,43.20
2023-03-29T12:10:40.666Z,43.10
2023-03-29T12:13:33.205Z,43.40
2023-03-29T12:16:26.575Z,43.10
2023-03-29T12:18:57.142Z,43.50
2023-03-29T12:21:28.049Z,43.40
2023-03-29T12:23:55.428Z,42.90
2023-03-29T12:26:53.420Z,43.20
2023-03-29T12:29:27.486Z,42.30
2023-03-29T12:32:12.798Z,42.50
2023-03-29T12:35:00.820Z,42.30
2023-03-29T12:37:28.696Z,42.10
2023-03-29T12:40:06.339Z,42.50
2023-03-29T12:42:33.318Z,42.50
2023-03-29T12:45:01.652Z,42.60
2023-03-29T12:47:38.216Z,42.50
2023-03-29T12:50:38.914Z,42.20
2023-03-29T12:53:19.179Z,42.20
2023-03-29T12:56:01.840Z,42.10
2023-03-29T12:59:18.137Z,41.80
2023-03-29T13:02:15.456Z,41.90
2023-03-29T13:04:55.650Z,42.30
2023-03-29T13:07:22.765Z,42.90
2023-03-29T13:09:53.033Z,43.20
2023-03-29T13:12:34.514Z,43.50
2023-03-29T13:15:05.471Z,43.80
2023-03-29T13:17:55.558Z,44.10
2023-03-29T13:20:51.031Z,44.20
2023-03-29T13:23:36.475Z,44.10
2023-03-29T13:26:29.907Z,44.20
2023-03-29T13:29:13.253Z,44.50
2023-03-29T13:42:51.437Z,42.60
2023-03-29T13:45:56.151Z,42.40
2023-03-29T13:48:40.639Z,42.30
2023-03-29T14:07:09.322Z,42.40
2023-03-29T14:10:50.957Z,42.90
2023-03-29T15:25:41.230Z,44.30
2023-03-29T15:28:26.539Z,44.50
2023-03-29T15:31:07.657Z,44.60
2023-03-29T15:33:40.543Z,44.70
2023-03-29T15:36:09.870Z,44.60
2023-03-29T15:38:44.085Z,44.80
2023-03-29T15:41:13.661Z,45.10
2023-03-29T15:43:41.463Z,45.20
2023-03-29T15:46:10.936Z,45.20
2023-03-29T15:48:37.895Z,45.10
2023-03-29T15:51:06.932Z,45.20
2023-03-29T15:53:35.223Z,45.40
2023-03-29T15:56:05.541Z,45.60
2023-03-29T15:58:34.519Z,45.70
2023-03-29T16:01:23.571Z,45.70
2023-03-29T16:03:51.047Z,45.60
2023-03-29T16:06:18.483Z,45.80
2023-03-29T16:08:46.156Z,45.80
2023-03-29T16:11:13.926Z,45.70
2023-03-29T16:13:40.907Z,45.60
2023-03-29T16:16:12.440Z,45.70
2023-03-29T16:18:39.342Z,45.70
2023-03-29T16:21:06.674Z,45.60
2023-03-29T16:23:33.536Z,45.60
2023-03-29T16:26:00.511Z,45.60
2023-03-29T16:28:28.302Z,45.60
2023-03-29T16:30:55.191Z,45.90
2023-03-29T16:33:22.096Z,45.90
2023-03-29T16:35:49.107Z,46.00
2023-03-29T16:38:16.008Z,46.00
2023-03-29T16:40:43.830Z,46.10
2023-03-29T16:43:18.713Z,46.20
2023-03-29T16:45:46.008Z,46.30
2023-03-29T16:48:21.830Z,46.20
2023-03-29T16:50:49.547Z,46.30
2023-03-29T16:53:18.357Z,46.60
2023-03-29T16:55:48.326Z,46.60
2023-03-29T16:58:16.280Z,46.70
2023-03-29T17:00:46.365Z,46.80
2023-03-29T17:03:15.478Z,47.00
2023-03-29T17:05:50.312Z,46.90
2023-03-29T17:08:18.024Z,47.00
2023-03-29T17:10:45.582Z,47.10
2023-03-29T17:13:13.159Z,47.10
2023-03-29T17:15:40.285Z,47.10
2023-03-29T17:18:07.416Z,47.50
2023-03-29T17:20:34.354Z,47.60
2023-03-29T17:23:01.341Z,47.70
2023-03-29T17:25:28.207Z,47.80
2023-03-29T17:27:55.108Z,48.00
2023-03-29T17:30:22.050Z,48.10
2023-03-29T17:32:49.325Z,48.90
2023-03-29T17:35:16.327Z,48.40
2023-03-29T17:37:43.326Z,48.60
2023-03-29T17:40:13.816Z,48.70
2023-03-29T17:42:41.776Z,48.80
2023-03-29T17:45:10.597Z,49.00
2023-03-29T17:47:38.781Z,50.00
2023-03-29T17:50:07.362Z,49.20
2023-03-29T17:52:34.565Z,49.40
2023-03-29T17:55:01.701Z,49.30
2023-03-29T17:57:28.696Z,49.50
2023-03-29T17:59:55.578Z,50.30
2023-03-29T18:02:24.484Z,49.80
2023-03-29T18:04:51.840Z,50.00
2023-03-29T18:07:18.947Z,50.30
2023-03-29T18:09:46.244Z,50.30
2023-03-29T18:12:13.122Z,50.50
2023-03-29T18:14:40.005Z,50.60
2023-03-29T18:17:06.904Z,50.70
2023-03-29T18:19:33.974Z,50.80
2023-03-29T18:22:00.997Z,51.00
2023-03-29T18:24:27.921Z,51.20
2023-03-29T18:26:54.862Z,51.40
2023-03-29T18:29:21.894Z,51.60
2023-03-29T18:31:48.824Z,52.30
2023-03-29T18:34:16.049Z,51.70
2023-03-29T18:36:43.066Z,51.90
2023-03-29T18:39:09.925Z,52.00
2023-03-29T18:41:37.445Z,52.20
2023-03-29T18:44:04.541Z,52.20
2023-03-29T18:46:31.980Z,52.40
2023-03-29T18:49:00.498Z,52.60
2023-03-29T18:51:31.137Z,52.70
2023-03-29T18:53:58.063Z,52.90
2023-03-29T18:56:25.094Z,52.90
2023-03-29T18:58:52.385Z,52.90
2023-03-29T19:01:19.351Z,53.10
2023-03-29T19:03:47.077Z,53.10
2023-03-29T19:06:15.245Z,53.20
2023-03-29T19:08:42.315Z,53.30
2023-03-29T19:11:14.230Z,53.30
2023-03-29T19:13:41.992Z,53.40
2023-03-29T19:16:09.151Z,53.50
2023-03-29T19:18:36.753Z,53.50
2023-03-29T19:21:03.883Z,53.60
2023-03-29T19:23:30.774Z,54.00
2023-03-29T19:26:00.323Z,54.20
2023-03-29T19:28:27.984Z,54.60
2023-03-29T19:30:56.353Z,54.90
2023-03-29T19:33:23.436Z,55.20
2023-03-29T19:35:51.819Z,55.00
2023-03-29T19:38:19.409Z,55.30
2023-03-29T19:40:48.144Z,55.60
2023-03-29T19:43:16.771Z,55.60
2023-03-29T19:45:44.592Z,56.00
2023-03-29T19:48:21.155Z,55.80
2023-03-29T19:50:49.054Z,55.90
2023-03-29T19:53:16.028Z,56.30
2023-03-29T19:55:45.297Z,56.40
2023-03-29T19:58:13.212Z,57.10
2023-03-29T20:00:41.929Z,56.90
2023-03-29T20:03:13.983Z,57.10
2023-03-29T20:05:41.195Z,57.20
2023-03-29T20:08:08.562Z,57.00
2023-03-29T20:10:36.418Z,57.00
2023-03-29T20:13:03.644Z,57.10
2023-03-29T20:15:30.561Z,57.10
2023-03-29T20:17:59.689Z,57.00
2023-03-29T20:20:27.338Z,57.00
2023-03-29T20:23:04.583Z,57.20
2023-03-29T20:25:33.051Z,57.10
2023-03-29T20:28:00.306Z,57.30
2023-03-29T20:30:27.284Z,57.30
2023-03-29T20:32:54.202Z,57.40
2023-03-29T20:35:21.214Z,57.50
2023-03-29T20:37:48.147Z,57.70
2023-03-29T20:40:15.827Z,57.90
2023-03-29T20:42:43.005Z,58.20
2023-03-29T20:45:18.356Z,58.40
2023-03-29T20:47:57.590Z,58.40
2023-03-29T20:50:26.406Z,58.50
2023-03-29T20:52:57.135Z,58.50
2023-03-29T20:55:24.650Z,58.60
2023-03-29T20:57:58.271Z,58.60
2023-03-29T21:00:27.280Z,58.60
2023-03-29T21:03:01.188Z,58.60
2023-03-29T21:05:29.248Z,58.50
2023-03-29T21:07:57.011Z,58.40
2023-03-29T21:10:25.590Z,58.40
2023-03-29T21:12:54.367Z,58.60
2023-03-29T21:15:21.271Z,58.70
2023-03-29T21:17:48.201Z,58.60
2023-03-29T21:20:15.644Z,58.60
2023-03-29T21:22:45.334Z,58.70
2023-03-29T21:25:15.653Z,58.70
2023-03-29T21:27:43.005Z,58.80
2023-03-29T21:30:10.958Z,58.70
2023-03-29T21:32:38.176Z,58.80
2023-03-29T21:35:05.984Z,58.90
2023-03-29T21:37:33.243Z,58.90
2023-03-29T21:40:00.405Z,58.80
2023-03-29T21:42:27.243Z,58.80
2023-03-29T21:44:54.081Z,58.90
2023-03-29T21:47:20.993Z,58.90
2023-03-29T21:49:47.832Z,58.90
2023-03-29T21:52:14.675Z,58.90
2023-03-29T21:54:41.585Z,58.90
2023-03-29T21:57:08.685Z,58.80
2023-03-29T21:59:35.771Z,58.90
2023-03-29T22:02:02.701Z,58.90
2023-03-29T22:04:37.030Z,58.90
2023-03-29T22:07:05.951Z,59.50
2023-03-29T22:09:35.204Z,58.80
2023-03-29T22:12:03.007Z,58.90
2023-03-29T22:14:34.774Z,58.90
2023-03-29T22:17:02.867Z,59.00
2023-03-29T22:19:29.735Z,59.10
2023-03-29T22:22:01.570Z,59.30
2023-03-29T22:24:29.342Z,59.40
2023-03-29T22:26:56.413Z,59.50
2023-03-29T22:29:23.314Z,59.50
2023-03-29T22:31:50.380Z,59.60
2023-03-29T22:34:17.402Z,59.60
2023-03-29T22:36:44.321Z,59.60
2023-03-29T22:39:12.070Z,59.70
2023-03-29T22:41:39.190Z,59.70
2023-03-29T22:44:06.394Z,59.70
2023-03-29T22:46:33.336Z,59.70
2023-03-29T22:49:00.291Z,59.80
2023-03-29T22:51:27.464Z,59.70
2023-03-29T22:53:54.425Z,59.70
2023-03-29T22:56:21.957Z,59.60
2023-03-29T22:58:49.175Z,59.70
2023-03-29T23:01:16.119Z,59.80
2023-03-29T23:03:43.088Z,59.70
2023-03-29T23:06:10.118Z,59.70
2023-03-29T23:08:37.243Z,59.70
2023-03-29T23:11:04.926Z,59.60
2023-03-29T23:13:33.590Z,59.70
2023-03-29T23:16:02.232Z,59.80
2023-03-29T23:18:30.372Z,59.90
2023-03-29T23:20:59.022Z,60.00
2023-03-29T23:23:27.104Z,60.10
2023-03-29T23:25:55.675Z,60.10
2023-03-29T23:28:26.102Z,60.10
2023-03-29T23:31:04.732Z,60.30
2023-03-29T23:33:35.444Z,60.30
2023-03-29T23:36:04.535Z,60.30
2023-03-29T23:38:36.108Z,60.30
2023-03-29T23:41:06.133Z,60.20
2023-03-29T23:43:35.131Z,60.20
2023-03-29T23:46:05.260Z,60.20
2023-03-29T23:48:32.662Z,60.20
2023-03-29T23:50:59.955Z,60.20
2023-03-29T23:53:29.129Z,60.20
2023-03-29T23:56:01.449Z,60.10
2023-03-29T23:58:33.419Z,60.10
